sensor_id;sensor_type;location;lat;lon;timestamp;P1;durP1;ratioP1;P2;durP2;ratioP2
7997;SDS011;4044;49.814;7.828;2023-07-29T00:00:44;3.95;;;2.33;;
7997;SDS011;4044;49.814;7.828;2023-07-29T00:03:09;3.45;;;2.55;;
7997;SDS011;4044;49.814;7.828;2023-07-29T00:05:36;4.13;;;2.05;;
7997;SDS011;4044;49.814;7.828;2023-07-29T00:08:02;3.72;;;2.58;;
7997;SDS011;4044;49.814;7.828;2023-07-29T00:10:27;2.30;;;2.20;;
7997;SDS011;4044;49.814;7.828;2023-07-29T00:12:53;2.35;;;2.13;;
7997;SDS011;4044;49.814;7.828;2023-07-29T00:15:18;4.45;;;2.28;;
7997;SDS011;4044;49.814;7.828;2023-07-29T00:17:44;3.65;;;2.20;;
7997;SDS011;4044;49.814;7.828;2023-07-29T00:20:10;5.80;;;2.65;;
7997;SDS011;4044;49.814;7.828;2023-07-29T00:22:35;6.65;;;2.38;;
7997;SDS011;4044;49.814;7.828;2023-07-29T00:25:01;9.50;;;2.15;;
7997;SDS011;4044;49.814;7.828;2023-07-29T00:27:27;3.75;;;2.45;;
7997;SDS011;4044;49.814;7.828;2023-07-29T00:29:52;4.47;;;2.50;;
7997;SDS011;4044;49.814;7.828;2023-07-29T00:32:18;2.42;;;2.22;;
7997;SDS011;4044;49.814;7.828;2023-07-29T00:34:43;5.82;;;2.20;;
7997;SDS011;4044;49.814;7.828;2023-07-29T00:37:09;3.95;;;2.45;;
7997;SDS011;4044;49.814;7.828;2023-07-29T00:39:35;6.18;;;2.50;;
7997;SDS011;4044;49.814;7.828;2023-07-29T00:42:02;2.70;;;2.40;;
7997;SDS011;4044;49.814;7.828;2023-07-29T00:44:28;2.42;;;2.22;;
7997;SDS011;4044;49.814;7.828;2023-07-29T00:46:53;5.93;;;2.88;;
7997;SDS011;4044;49.814;7.828;2023-07-29T00:49:20;4.47;;;2.60;;
7997;SDS011;4044;49.814;7.828;2023-07-29T00:51:46;4.50;;;2.33;;
7997;SDS011;4044;49.814;7.828;2023-07-29T00:54:12;7.45;;;2.60;;
7997;SDS011;4044;49.814;7.828;2023-07-29T00:56:38;3.58;;;2.35;;
7997;SDS011;4044;49.814;7.828;2023-07-29T00:59:04;3.42;;;2.40;;
7997;SDS011;4044;49.814;7.828;2023-07-29T01:01:30;4.35;;;2.63;;
7997;SDS011;4044;49.814;7.828;2023-07-29T01:03:56;4.22;;;2.83;;
7997;SDS011;4044;49.814;7.828;2023-07-29T01:09:06;2.90;;;2.50;;
7997;SDS011;4044;49.814;7.828;2023-07-29T01:11:48;4.22;;;2.67;;
7997;SDS011;4044;49.814;7.828;2023-07-29T01:14:56;6.68;;;2.63;;
7997;SDS011;4044;49.814;7.828;2023-07-29T01:17:30;7.53;;;2.67;;
7997;SDS011;4044;49.814;7.828;2023-07-29T01:22:31;5.38;;;3.20;;
7997;SDS011;4044;49.814;7.828;2023-07-29T01:24:58;3.47;;;2.60;;
7997;SDS011;4044;49.814;7.828;2023-07-29T01:27:24;18.27;;;3.88;;
7997;SDS011;4044;49.814;7.828;2023-07-29T01:29:50;5.18;;;3.30;;
7997;SDS011;4044;49.814;7.828;2023-07-29T01:32:20;6.90;;;3.55;;
7997;SDS011;4044;49.814;7.828;2023-07-29T01:34:58;27.73;;;5.18;;
7997;SDS011;4044;49.814;7.828;2023-07-29T01:37:32;50.85;;;6.60;;
7997;SDS011;4044;49.814;7.828;2023-07-29T01:39:59;13.48;;;4.88;;
7997;SDS011;4044;49.814;7.828;2023-07-29T01:42:25;9.18;;;4.68;;
7997;SDS011;4044;49.814;7.828;2023-07-29T01:44:52;8.10;;;5.00;;
7997;SDS011;4044;49.814;7.828;2023-07-29T01:47:17;5.95;;;4.82;;
7997;SDS011;4044;49.814;7.828;2023-07-29T01:49:43;6.90;;;4.80;;
7997;SDS011;4044;49.814;7.828;2023-07-29T01:52:09;9.20;;;5.50;;
7997;SDS011;4044;49.814;7.828;2023-07-29T01:54:34;9.15;;;5.50;;
7997;SDS011;4044;49.814;7.828;2023-07-29T01:57:00;9.13;;;5.10;;
7997;SDS011;4044;49.814;7.828;2023-07-29T01:59:25;9.52;;;5.38;;
7997;SDS011;4044;49.814;7.828;2023-07-29T02:01:51;11.70;;;5.82;;
7997;SDS011;4044;49.814;7.828;2023-07-29T02:04:16;10.05;;;5.38;;
7997;SDS011;4044;49.814;7.828;2023-07-29T02:06:42;8.45;;;5.05;;
7997;SDS011;4044;49.814;7.828;2023-07-29T02:09:07;11.35;;;6.05;;
7997;SDS011;4044;49.814;7.828;2023-07-29T02:11:33;7.82;;;5.10;;
7997;SDS011;4044;49.814;7.828;2023-07-29T02:13:58;9.65;;;5.65;;
7997;SDS011;4044;49.814;7.828;2023-07-29T02:16:24;7.88;;;5.03;;
7997;SDS011;4044;49.814;7.828;2023-07-29T02:18:49;11.18;;;5.60;;
7997;SDS011;4044;49.814;7.828;2023-07-29T02:21:15;8.82;;;4.80;;
7997;SDS011;4044;49.814;7.828;2023-07-29T02:23:41;9.40;;;4.97;;
7997;SDS011;4044;49.814;7.828;2023-07-29T02:26:06;6.57;;;4.80;;
7997;SDS011;4044;49.814;7.828;2023-07-29T02:28:32;6.85;;;5.15;;
7997;SDS011;4044;49.814;7.828;2023-07-29T02:33:46;10.48;;;5.47;;
7997;SDS011;4044;49.814;7.828;2023-07-29T02:36:12;5.82;;;5.22;;
7997;SDS011;4044;49.814;7.828;2023-07-29T02:38:39;8.60;;;5.03;;
7997;SDS011;4044;49.814;7.828;2023-07-29T02:41:05;8.43;;;5.10;;
7997;SDS011;4044;49.814;7.828;2023-07-29T02:43:31;8.88;;;4.97;;
7997;SDS011;4044;49.814;7.828;2023-07-29T02:45:56;5.22;;;4.80;;
7997;SDS011;4044;49.814;7.828;2023-07-29T02:48:22;8.88;;;5.72;;
7997;SDS011;4044;49.814;7.828;2023-07-29T02:50:48;14.40;;;6.95;;
7997;SDS011;4044;49.814;7.828;2023-07-29T02:53:13;6.43;;;5.47;;
7997;SDS011;4044;49.814;7.828;2023-07-29T02:55:39;11.70;;;6.03;;
7997;SDS011;4044;49.814;7.828;2023-07-29T02:58:05;8.50;;;6.15;;
7997;SDS011;4044;49.814;7.828;2023-07-29T03:00:31;9.23;;;5.07;;
7997;SDS011;4044;49.814;7.828;2023-07-29T03:02:58;6.75;;;4.95;;
7997;SDS011;4044;49.814;7.828;2023-07-29T03:05:23;9.82;;;5.90;;
7997;SDS011;4044;49.814;7.828;2023-07-29T03:07:49;6.85;;;5.40;;
7997;SDS011;4044;49.814;7.828;2023-07-29T03:10:14;8.40;;;5.97;;
7997;SDS011;4044;49.814;7.828;2023-07-29T03:12:40;13.20;;;5.85;;
7997;SDS011;4044;49.814;7.828;2023-07-29T03:15:06;6.13;;;5.53;;
7997;SDS011;4044;49.814;7.828;2023-07-29T03:17:32;11.40;;;6.80;;
7997;SDS011;4044;49.814;7.828;2023-07-29T03:19:57;8.27;;;5.50;;
7997;SDS011;4044;49.814;7.828;2023-07-29T03:22:23;9.18;;;5.60;;
7997;SDS011;4044;49.814;7.828;2023-07-29T03:24:48;6.18;;;5.55;;
7997;SDS011;4044;49.814;7.828;2023-07-29T03:27:14;10.38;;;5.78;;
7997;SDS011;4044;49.814;7.828;2023-07-29T03:29:41;13.05;;;6.38;;
7997;SDS011;4044;49.814;7.828;2023-07-29T03:32:06;8.35;;;6.40;;
7997;SDS011;4044;49.814;7.828;2023-07-29T03:34:32;6.15;;;5.03;;
7997;SDS011;4044;49.814;7.828;2023-07-29T03:36:58;10.40;;;5.70;;
7997;SDS011;4044;49.814;7.828;2023-07-29T03:39:25;12.43;;;5.43;;
7997;SDS011;4044;49.814;7.828;2023-07-29T03:41:51;12.63;;;5.90;;
7997;SDS011;4044;49.814;7.828;2023-07-29T03:44:17;8.40;;;5.40;;
7997;SDS011;4044;49.814;7.828;2023-07-29T03:46:43;37.85;;;8.60;;
7997;SDS011;4044;49.814;7.828;2023-07-29T03:49:11;24.15;;;7.25;;
7997;SDS011;4044;49.814;7.828;2023-07-29T03:51:37;24.90;;;6.90;;
7997;SDS011;4044;49.814;7.828;2023-07-29T03:54:02;19.75;;;6.28;;
7997;SDS011;4044;49.814;7.828;2023-07-29T03:56:28;7.53;;;5.88;;
7997;SDS011;4044;49.814;7.828;2023-07-29T03:58:57;7.00;;;5.35;;
7997;SDS011;4044;49.814;7.828;2023-07-29T04:01:28;8.32;;;5.47;;
7997;SDS011;4044;49.814;7.828;2023-07-29T04:03:53;14.35;;;6.28;;
7997;SDS011;4044;49.814;7.828;2023-07-29T04:06:19;6.50;;;5.32;;
7997;SDS011;4044;49.814;7.828;2023-07-29T04:08:45;5.55;;;5.00;;
7997;SDS011;4044;49.814;7.828;2023-07-29T04:11:11;8.18;;;5.20;;
7997;SDS011;4044;49.814;7.828;2023-07-29T04:13:36;44.97;;;7.78;;
7997;SDS011;4044;49.814;7.828;2023-07-29T04:16:02;17.17;;;6.45;;
7997;SDS011;4044;49.814;7.828;2023-07-29T04:18:29;18.10;;;7.03;;
7997;SDS011;4044;49.814;7.828;2023-07-29T04:20:54;62.92;;;8.73;;
7997;SDS011;4044;49.814;7.828;2023-07-29T04:23:20;41.63;;;7.50;;
7997;SDS011;4044;49.814;7.828;2023-07-29T04:25:45;51.30;;;7.47;;
7997;SDS011;4044;49.814;7.828;2023-07-29T04:28:11;85.90;;;9.57;;
7997;SDS011;4044;49.814;7.828;2023-07-29T04:30:36;84.53;;;10.30;;
7997;SDS011;4044;49.814;7.828;2023-07-29T04:33:02;74.82;;;8.75;;
7997;SDS011;4044;49.814;7.828;2023-07-29T04:35:28;85.90;;;8.50;;
7997;SDS011;4044;49.814;7.828;2023-07-29T04:37:53;79.63;;;9.48;;
7997;SDS011;4044;49.814;7.828;2023-07-29T04:40:19;68.20;;;8.75;;
7997;SDS011;4044;49.814;7.828;2023-07-29T04:42:44;71.70;;;8.88;;
7997;SDS011;4044;49.814;7.828;2023-07-29T04:45:10;39.00;;;7.53;;
7997;SDS011;4044;49.814;7.828;2023-07-29T04:47:35;58.83;;;9.95;;
7997;SDS011;4044;49.814;7.828;2023-07-29T04:50:01;84.53;;;11.18;;
7997;SDS011;4044;49.814;7.828;2023-07-29T04:52:27;48.72;;;7.25;;
7997;SDS011;4044;49.814;7.828;2023-07-29T04:54:52;59.40;;;8.02;;
7997;SDS011;4044;49.814;7.828;2023-07-29T04:57:18;36.30;;;7.28;;
7997;SDS011;4044;49.814;7.828;2023-07-29T04:59:43;99.75;;;8.90;;
7997;SDS011;4044;49.814;7.828;2023-07-29T05:02:09;73.25;;;8.18;;
7997;SDS011;4044;49.814;7.828;2023-07-29T05:04:34;52.05;;;6.72;;
7997;SDS011;4044;49.814;7.828;2023-07-29T05:07:00;76.35;;;8.07;;
7997;SDS011;4044;49.814;7.828;2023-07-29T05:09:25;18.98;;;5.85;;
7997;SDS011;4044;49.814;7.828;2023-07-29T05:11:51;11.57;;;5.47;;
7997;SDS011;4044;49.814;7.828;2023-07-29T05:14:17;23.17;;;6.90;;
7997;SDS011;4044;49.814;7.828;2023-07-29T05:16:43;21.48;;;5.93;;
7997;SDS011;4044;49.814;7.828;2023-07-29T05:19:09;17.88;;;6.60;;
7997;SDS011;4044;49.814;7.828;2023-07-29T05:21:35;20.17;;;5.97;;
7997;SDS011;4044;49.814;7.828;2023-07-29T05:24:00;24.35;;;7.22;;
7997;SDS011;4044;49.814;7.828;2023-07-29T05:26:26;21.17;;;6.70;;
7997;SDS011;4044;49.814;7.828;2023-07-29T05:28:51;14.30;;;6.57;;
7997;SDS011;4044;49.814;7.828;2023-07-29T05:31:17;9.75;;;6.22;;
7997;SDS011;4044;49.814;7.828;2023-07-29T05:33:42;6.10;;;5.32;;
7997;SDS011;4044;49.814;7.828;2023-07-29T05:36:08;8.68;;;6.50;;
7997;SDS011;4044;49.814;7.828;2023-07-29T05:38:34;14.82;;;7.05;;
7997;SDS011;4044;49.814;7.828;2023-07-29T05:40:59;8.85;;;5.97;;
7997;SDS011;4044;49.814;7.828;2023-07-29T05:43:25;10.40;;;5.45;;
7997;SDS011;4044;49.814;7.828;2023-07-29T05:45:51;9.07;;;6.35;;
7997;SDS011;4044;49.814;7.828;2023-07-29T05:48:18;6.72;;;5.43;;
7997;SDS011;4044;49.814;7.828;2023-07-29T05:50:46;8.30;;;5.82;;
7997;SDS011;4044;49.814;7.828;2023-07-29T05:53:12;8.77;;;6.15;;
7997;SDS011;4044;49.814;7.828;2023-07-29T05:55:38;5.72;;;5.13;;
7997;SDS011;4044;49.814;7.828;2023-07-29T05:58:04;8.27;;;5.60;;
7997;SDS011;4044;49.814;7.828;2023-07-29T06:00:30;9.25;;;6.05;;
7997;SDS011;4044;49.814;7.828;2023-07-29T06:02:55;7.70;;;5.93;;
7997;SDS011;4044;49.814;7.828;2023-07-29T06:05:21;11.43;;;6.60;;
7997;SDS011;4044;49.814;7.828;2023-07-29T06:07:46;7.18;;;5.43;;
7997;SDS011;4044;49.814;7.828;2023-07-29T06:10:13;8.15;;;5.75;;
7997;SDS011;4044;49.814;7.828;2023-07-29T06:12:43;6.50;;;5.20;;
7997;SDS011;4044;49.814;7.828;2023-07-29T06:15:09;8.70;;;5.80;;
7997;SDS011;4044;49.814;7.828;2023-07-29T06:17:35;6.40;;;5.72;;
7997;SDS011;4044;49.814;7.828;2023-07-29T06:20:00;7.47;;;6.10;;
7997;SDS011;4044;49.814;7.828;2023-07-29T06:22:26;7.45;;;5.78;;
7997;SDS011;4044;49.814;7.828;2023-07-29T06:24:51;6.38;;;5.80;;
7997;SDS011;4044;49.814;7.828;2023-07-29T06:27:17;7.88;;;6.55;;
7997;SDS011;4044;49.814;7.828;2023-07-29T06:29:43;8.40;;;6.13;;
7997;SDS011;4044;49.814;7.828;2023-07-29T06:32:08;17.85;;;7.50;;
7997;SDS011;4044;49.814;7.828;2023-07-29T06:34:34;24.25;;;9.18;;
7997;SDS011;4044;49.814;7.828;2023-07-29T06:36:59;13.13;;;7.97;;
7997;SDS011;4044;49.814;7.828;2023-07-29T06:39:25;9.93;;;7.40;;
7997;SDS011;4044;49.814;7.828;2023-07-29T06:41:50;10.55;;;8.82;;
7997;SDS011;4044;49.814;7.828;2023-07-29T06:44:16;8.57;;;7.78;;
7997;SDS011;4044;49.814;7.828;2023-07-29T06:46:41;12.57;;;9.60;;
7997;SDS011;4044;49.814;7.828;2023-07-29T06:49:07;11.32;;;9.23;;
7997;SDS011;4044;49.814;7.828;2023-07-29T06:51:32;16.73;;;10.13;;
7997;SDS011;4044;49.814;7.828;2023-07-29T06:54:00;16.10;;;10.68;;
7997;SDS011;4044;49.814;7.828;2023-07-29T06:56:26;12.68;;;9.07;;
7997;SDS011;4044;49.814;7.828;2023-07-29T06:58:51;10.02;;;8.82;;
7997;SDS011;4044;49.814;7.828;2023-07-29T07:01:17;14.20;;;9.73;;
7997;SDS011;4044;49.814;7.828;2023-07-29T07:03:42;10.48;;;8.52;;
7997;SDS011;4044;49.814;7.828;2023-07-29T07:06:08;13.50;;;8.82;;
7997;SDS011;4044;49.814;7.828;2023-07-29T07:08:33;7.65;;;6.28;;
7997;SDS011;4044;49.814;7.828;2023-07-29T07:10:59;5.22;;;4.43;;
7997;SDS011;4044;49.814;7.828;2023-07-29T07:13:25;6.38;;;5.40;;
7997;SDS011;4044;49.814;7.828;2023-07-29T07:15:50;8.07;;;6.90;;
7997;SDS011;4044;49.814;7.828;2023-07-29T07:18:18;6.88;;;5.80;;
7997;SDS011;4044;49.814;7.828;2023-07-29T07:20:47;5.43;;;3.40;;
7997;SDS011;4044;49.814;7.828;2023-07-29T07:23:14;2.90;;;2.55;;
7997;SDS011;4044;49.814;7.828;2023-07-29T07:25:40;3.53;;;3.22;;
7997;SDS011;4044;49.814;7.828;2023-07-29T07:28:07;4.20;;;3.63;;
7997;SDS011;4044;49.814;7.828;2023-07-29T07:30:33;5.70;;;3.70;;
7997;SDS011;4044;49.814;7.828;2023-07-29T07:32:58;4.18;;;3.83;;
7997;SDS011;4044;49.814;7.828;2023-07-29T07:35:24;4.10;;;3.80;;
7997;SDS011;4044;49.814;7.828;2023-07-29T07:37:49;4.80;;;4.30;;
7997;SDS011;4044;49.814;7.828;2023-07-29T07:40:15;5.30;;;4.13;;
7997;SDS011;4044;49.814;7.828;2023-07-29T07:42:40;4.35;;;3.58;;
7997;SDS011;4044;49.814;7.828;2023-07-29T07:45:06;4.57;;;3.10;;
7997;SDS011;4044;49.814;7.828;2023-07-29T07:47:32;4.60;;;3.33;;
7997;SDS011;4044;49.814;7.828;2023-07-29T07:49:57;3.95;;;3.28;;
7997;SDS011;4044;49.814;7.828;2023-07-29T07:52:23;3.72;;;3.33;;
7997;SDS011;4044;49.814;7.828;2023-07-29T07:54:52;3.17;;;2.97;;
7997;SDS011;4044;49.814;7.828;2023-07-29T07:57:19;3.05;;;2.83;;
7997;SDS011;4044;49.814;7.828;2023-07-29T07:59:45;6.20;;;3.33;;
7997;SDS011;4044;49.814;7.828;2023-07-29T08:02:10;4.30;;;2.00;;
7997;SDS011;4044;49.814;7.828;2023-07-29T08:04:36;2.28;;;2.08;;
7997;SDS011;4044;49.814;7.828;2023-07-29T08:07:01;2.35;;;2.15;;
7997;SDS011;4044;49.814;7.828;2023-07-29T08:09:27;2.20;;;2.00;;
7997;SDS011;4044;49.814;7.828;2023-07-29T08:11:53;2.78;;;2.28;;
7997;SDS011;4044;49.814;7.828;2023-07-29T08:14:18;2.33;;;2.22;;
7997;SDS011;4044;49.814;7.828;2023-07-29T08:16:44;2.80;;;2.58;;
7997;SDS011;4044;49.814;7.828;2023-07-29T08:19:09;3.47;;;2.03;;
7997;SDS011;4044;49.814;7.828;2023-07-29T08:21:35;2.17;;;2.08;;
7997;SDS011;4044;49.814;7.828;2023-07-29T08:24:01;2.03;;;1.92;;
7997;SDS011;4044;49.814;7.828;2023-07-29T08:26:26;3.83;;;1.92;;
7997;SDS011;4044;49.814;7.828;2023-07-29T08:28:52;2.40;;;2.20;;
7997;SDS011;4044;49.814;7.828;2023-07-29T08:31:18;3.92;;;2.80;;
7997;SDS011;4044;49.814;7.828;2023-07-29T08:33:43;2.90;;;2.70;;
7997;SDS011;4044;49.814;7.828;2023-07-29T08:36:08;2.40;;;2.17;;
7997;SDS011;4044;49.814;7.828;2023-07-29T08:38:34;2.10;;;1.90;;
7997;SDS011;4044;49.814;7.828;2023-07-29T08:43:47;2.50;;;2.35;;
7997;SDS011;4044;49.814;7.828;2023-07-29T08:46:14;5.80;;;2.47;;
7997;SDS011;4044;49.814;7.828;2023-07-29T08:48:42;2.75;;;2.10;;
7997;SDS011;4044;49.814;7.828;2023-07-29T08:51:08;2.10;;;1.90;;
7997;SDS011;4044;49.814;7.828;2023-07-29T08:53:35;3.15;;;2.03;;
7997;SDS011;4044;49.814;7.828;2023-07-29T08:56:01;1.90;;;1.80;;
7997;SDS011;4044;49.814;7.828;2023-07-29T08:58:27;2.45;;;2.15;;
7997;SDS011;4044;49.814;7.828;2023-07-29T09:00:53;2.50;;;1.85;;
7997;SDS011;4044;49.814;7.828;2023-07-29T09:03:19;2.50;;;2.13;;
7997;SDS011;4044;49.814;7.828;2023-07-29T09:05:45;3.05;;;1.90;;
7997;SDS011;4044;49.814;7.828;2023-07-29T09:08:11;2.40;;;1.67;;
7997;SDS011;4044;49.814;7.828;2023-07-29T09:10:37;1.98;;;1.88;;
7997;SDS011;4044;49.814;7.828;2023-07-29T09:13:03;1.67;;;1.60;;
7997;SDS011;4044;49.814;7.828;2023-07-29T09:15:30;1.85;;;1.73;;
7997;SDS011;4044;49.814;7.828;2023-07-29T09:17:56;1.90;;;1.80;;
7997;SDS011;4044;49.814;7.828;2023-07-29T09:20:28;1.90;;;1.80;;
7997;SDS011;4044;49.814;7.828;2023-07-29T09:22:54;2.08;;;1.80;;
7997;SDS011;4044;49.814;7.828;2023-07-29T09:25:24;1.75;;;1.50;;
7997;SDS011;4044;49.814;7.828;2023-07-29T09:27:50;1.58;;;1.55;;
7997;SDS011;4044;49.814;7.828;2023-07-29T09:30:16;1.80;;;1.70;;
7997;SDS011;4044;49.814;7.828;2023-07-29T09:32:42;1.65;;;1.55;;
7997;SDS011;4044;49.814;7.828;2023-07-29T09:35:13;2.53;;;1.95;;
7997;SDS011;4044;49.814;7.828;2023-07-29T09:37:39;1.50;;;1.30;;
7997;SDS011;4044;49.814;7.828;2023-07-29T09:40:05;3.13;;;1.80;;
7997;SDS011;4044;49.814;7.828;2023-07-29T09:42:31;1.77;;;1.67;;
7997;SDS011;4044;49.814;7.828;2023-07-29T09:44:57;2.85;;;1.40;;
7997;SDS011;4044;49.814;7.828;2023-07-29T09:47:23;2.97;;;1.60;;
7997;SDS011;4044;49.814;7.828;2023-07-29T09:49:50;2.95;;;1.65;;
7997;SDS011;4044;49.814;7.828;2023-07-29T09:52:16;1.40;;;1.30;;
7997;SDS011;4044;49.814;7.828;2023-07-29T09:54:43;2.65;;;1.40;;
7997;SDS011;4044;49.814;7.828;2023-07-29T09:57:18;1.35;;;1.25;;
7997;SDS011;4044;49.814;7.828;2023-07-29T09:59:56;2.13;;;1.67;;
7997;SDS011;4044;49.814;7.828;2023-07-29T10:02:22;2.25;;;1.60;;
7997;SDS011;4044;49.814;7.828;2023-07-29T10:04:50;2.97;;;1.60;;
7997;SDS011;4044;49.814;7.828;2023-07-29T10:07:17;4.00;;;1.45;;
7997;SDS011;4044;49.814;7.828;2023-07-29T10:09:43;1.75;;;1.65;;
7997;SDS011;4044;49.814;7.828;2023-07-29T10:12:10;1.92;;;1.50;;
7997;SDS011;4044;49.814;7.828;2023-07-29T10:14:36;5.15;;;1.90;;
7997;SDS011;4044;49.814;7.828;2023-07-29T10:17:04;3.80;;;1.80;;
7997;SDS011;4044;49.814;7.828;2023-07-29T10:19:30;1.80;;;1.52;;
7997;SDS011;4044;49.814;7.828;2023-07-29T10:21:58;1.90;;;1.80;;
7997;SDS011;4044;49.814;7.828;2023-07-29T10:24:32;6.50;;;1.55;;
7997;SDS011;4044;49.814;7.828;2023-07-29T10:26:58;1.67;;;1.52;;
7997;SDS011;4044;49.814;7.828;2023-07-29T10:29:27;1.92;;;1.83;;
7997;SDS011;4044;49.814;7.828;2023-07-29T10:31:57;1.70;;;1.70;;
7997;SDS011;4044;49.814;7.828;2023-07-29T10:34:22;1.77;;;1.52;;
7997;SDS011;4044;49.814;7.828;2023-07-29T10:36:49;1.92;;;1.80;;
7997;SDS011;4044;49.814;7.828;2023-07-29T10:39:16;3.08;;;1.70;;
7997;SDS011;4044;49.814;7.828;2023-07-29T10:42:00;1.60;;;1.50;;
7997;SDS011;4044;49.814;7.828;2023-07-29T10:50:02;1.73;;;1.63;;
7997;SDS011;4044;49.814;7.828;2023-07-29T10:52:44;3.67;;;1.70;;
7997;SDS011;4044;49.814;7.828;2023-07-29T10:55:24;2.80;;;1.88;;
7997;SDS011;4044;49.814;7.828;2023-07-29T11:00:55;1.58;;;1.52;;
7997;SDS011;4044;49.814;7.828;2023-07-29T11:03:20;8.82;;;1.67;;
7997;SDS011;4044;49.814;7.828;2023-07-29T11:05:50;1.65;;;1.55;;
7997;SDS011;4044;49.814;7.828;2023-07-29T11:08:17;2.33;;;1.40;;
7997;SDS011;4044;49.814;7.828;2023-07-29T11:10:44;1.58;;;1.48;;
7997;SDS011;4044;49.814;7.828;2023-07-29T11:13:22;1.40;;;1.40;;
7997;SDS011;4044;49.814;7.828;2023-07-29T11:15:47;1.45;;;1.40;;
7997;SDS011;4044;49.814;7.828;2023-07-29T11:18:15;1.38;;;1.38;;
7997;SDS011;4044;49.814;7.828;2023-07-29T11:20:41;1.92;;;1.70;;
7997;SDS011;4044;49.814;7.828;2023-07-29T11:23:06;1.40;;;1.30;;
7997;SDS011;4044;49.814;7.828;2023-07-29T11:25:32;2.50;;;1.50;;
7997;SDS011;4044;49.814;7.828;2023-07-29T11:28:01;2.08;;;1.55;;
7997;SDS011;4044;49.814;7.828;2023-07-29T11:30:26;1.30;;;1.30;;
7997;SDS011;4044;49.814;7.828;2023-07-29T11:32:54;1.40;;;1.35;;
7997;SDS011;4044;49.814;7.828;2023-07-29T11:35:23;1.88;;;1.73;;
7997;SDS011;4044;49.814;7.828;2023-07-29T11:37:49;1.63;;;1.50;;
7997;SDS011;4044;49.814;7.828;2023-07-29T11:40:20;1.70;;;1.55;;
7997;SDS011;4044;49.814;7.828;2023-07-29T11:42:47;3.17;;;1.50;;
7997;SDS011;4044;49.814;7.828;2023-07-29T11:45:15;2.13;;;1.50;;
7997;SDS011;4044;49.814;7.828;2023-07-29T11:47:41;1.98;;;1.27;;
7997;SDS011;4044;49.814;7.828;2023-07-29T11:50:08;1.42;;;1.30;;
7997;SDS011;4044;49.814;7.828;2023-07-29T11:52:35;1.15;;;1.15;;
7997;SDS011;4044;49.814;7.828;2023-07-29T11:55:02;2.03;;;1.40;;
7997;SDS011;4044;49.814;7.828;2023-07-29T11:57:29;1.70;;;1.60;;
7997;SDS011;4044;49.814;7.828;2023-07-29T11:59:55;1.50;;;1.50;;
7997;SDS011;4044;49.814;7.828;2023-07-29T12:02:21;3.33;;;1.50;;
7997;SDS011;4044;49.814;7.828;2023-07-29T12:04:48;1.40;;;1.40;;
7997;SDS011;4044;49.814;7.828;2023-07-29T12:07:14;1.45;;;1.40;;
7997;SDS011;4044;49.814;7.828;2023-07-29T12:09:42;1.92;;;1.70;;
7997;SDS011;4044;49.814;7.828;2023-07-29T12:12:08;1.58;;;1.45;;
7997;SDS011;4044;49.814;7.828;2023-07-29T12:14:34;2.28;;;1.42;;
7997;SDS011;4044;49.814;7.828;2023-07-29T12:17:03;1.40;;;1.30;;
7997;SDS011;4044;49.814;7.828;2023-07-29T12:19:33;1.55;;;1.45;;
7997;SDS011;4044;49.814;7.828;2023-07-29T12:22:01;1.88;;;1.60;;
7997;SDS011;4044;49.814;7.828;2023-07-29T12:24:29;1.95;;;1.48;;
7997;SDS011;4044;49.814;7.828;2023-07-29T12:26:55;1.58;;;1.48;;
7997;SDS011;4044;49.814;7.828;2023-07-29T12:29:21;1.75;;;1.65;;
7997;SDS011;4044;49.814;7.828;2023-07-29T12:31:47;1.45;;;1.35;;
7997;SDS011;4044;49.814;7.828;2023-07-29T12:34:19;1.63;;;1.52;;
7997;SDS011;4044;49.814;7.828;2023-07-29T12:36:49;1.63;;;1.63;;
7997;SDS011;4044;49.814;7.828;2023-07-29T12:39:19;1.85;;;1.70;;
7997;SDS011;4044;49.814;7.828;2023-07-29T12:41:47;3.40;;;1.70;;
7997;SDS011;4044;49.814;7.828;2023-07-29T12:44:16;2.15;;;1.77;;
7997;SDS011;4044;49.814;7.828;2023-07-29T12:46:42;2.55;;;1.40;;
7997;SDS011;4044;49.814;7.828;2023-07-29T12:49:08;2.00;;;1.90;;
7997;SDS011;4044;49.814;7.828;2023-07-29T12:51:34;1.77;;;1.77;;
7997;SDS011;4044;49.814;7.828;2023-07-29T12:53:59;2.00;;;1.80;;
7997;SDS011;4044;49.814;7.828;2023-07-29T12:56:25;1.38;;;1.38;;
7997;SDS011;4044;49.814;7.828;2023-07-29T12:58:51;1.70;;;1.60;;
7997;SDS011;4044;49.814;7.828;2023-07-29T13:01:17;1.70;;;1.60;;
7997;SDS011;4044;49.814;7.828;2023-07-29T13:03:46;2.70;;;1.45;;
7997;SDS011;4044;49.814;7.828;2023-07-29T13:06:12;1.45;;;1.45;;
7997;SDS011;4044;49.814;7.828;2023-07-29T13:08:38;3.40;;;1.80;;
7997;SDS011;4044;49.814;7.828;2023-07-29T13:11:04;1.48;;;1.48;;
7997;SDS011;4044;49.814;7.828;2023-07-29T13:13:29;1.60;;;1.50;;
7997;SDS011;4044;49.814;7.828;2023-07-29T13:15:56;2.13;;;1.92;;
7997;SDS011;4044;49.814;7.828;2023-07-29T13:18:22;1.55;;;1.45;;
7997;SDS011;4044;49.814;7.828;2023-07-29T13:20:48;2.85;;;1.70;;
7997;SDS011;4044;49.814;7.828;2023-07-29T13:23:13;1.55;;;1.45;;
7997;SDS011;4044;49.814;7.828;2023-07-29T13:25:40;2.90;;;1.42;;
7997;SDS011;4044;49.814;7.828;2023-07-29T13:28:06;1.60;;;1.50;;
7997;SDS011;4044;49.814;7.828;2023-07-29T13:30:32;1.42;;;1.42;;
7997;SDS011;4044;49.814;7.828;2023-07-29T13:32:58;1.73;;;1.65;;
7997;SDS011;4044;49.814;7.828;2023-07-29T13:35:23;1.70;;;1.60;;
7997;SDS011;4044;49.814;7.828;2023-07-29T13:37:49;2.10;;;1.88;;
7997;SDS011;4044;49.814;7.828;2023-07-29T13:40:14;1.95;;;1.80;;
7997;SDS011;4044;49.814;7.828;2023-07-29T13:42:40;1.77;;;1.55;;
7997;SDS011;4044;49.814;7.828;2023-07-29T13:45:06;1.60;;;1.50;;
7997;SDS011;4044;49.814;7.828;2023-07-29T13:47:32;1.60;;;1.60;;
7997;SDS011;4044;49.814;7.828;2023-07-29T13:49:57;1.60;;;1.50;;
7997;SDS011;4044;49.814;7.828;2023-07-29T13:52:24;1.63;;;1.52;;
7997;SDS011;4044;49.814;7.828;2023-07-29T13:54:50;2.20;;;1.80;;
7997;SDS011;4044;49.814;7.828;2023-07-29T13:57:15;1.90;;;1.80;;
7997;SDS011;4044;49.814;7.828;2023-07-29T13:59:40;1.70;;;1.58;;
7997;SDS011;4044;49.814;7.828;2023-07-29T14:02:06;2.58;;;1.80;;
7997;SDS011;4044;49.814;7.828;2023-07-29T14:04:32;1.63;;;1.63;;
7997;SDS011;4044;49.814;7.828;2023-07-29T14:06:58;3.55;;;1.73;;
7997;SDS011;4044;49.814;7.828;2023-07-29T14:09:24;1.60;;;1.42;;
7997;SDS011;4044;49.814;7.828;2023-07-29T14:11:50;1.77;;;1.67;;
7997;SDS011;4044;49.814;7.828;2023-07-29T14:14:16;2.60;;;1.60;;
7997;SDS011;4044;49.814;7.828;2023-07-29T14:16:41;1.63;;;1.58;;
7997;SDS011;4044;49.814;7.828;2023-07-29T14:19:07;1.88;;;1.75;;
7997;SDS011;4044;49.814;7.828;2023-07-29T14:21:32;1.63;;;1.50;;
7997;SDS011;4044;49.814;7.828;2023-07-29T14:23:58;2.15;;;1.58;;
7997;SDS011;4044;49.814;7.828;2023-07-29T14:26:23;2.00;;;1.90;;
7997;SDS011;4044;49.814;7.828;2023-07-29T14:28:49;1.67;;;1.67;;
7997;SDS011;4044;49.814;7.828;2023-07-29T14:31:15;1.75;;;1.65;;
7997;SDS011;4044;49.814;7.828;2023-07-29T14:33:44;1.40;;;1.40;;
7997;SDS011;4044;49.814;7.828;2023-07-29T14:36:09;1.65;;;1.58;;
7997;SDS011;4044;49.814;7.828;2023-07-29T14:38:35;2.00;;;1.80;;
7997;SDS011;4044;49.814;7.828;2023-07-29T14:41:01;1.60;;;1.50;;
7997;SDS011;4044;49.814;7.828;2023-07-29T14:43:27;3.40;;;1.67;;
7997;SDS011;4044;49.814;7.828;2023-07-29T14:45:52;1.80;;;1.70;;
7997;SDS011;4044;49.814;7.828;2023-07-29T14:48:18;2.95;;;1.70;;
7997;SDS011;4044;49.814;7.828;2023-07-29T14:50:43;1.67;;;1.60;;
7997;SDS011;4044;49.814;7.828;2023-07-29T14:53:09;1.80;;;1.70;;
7997;SDS011;4044;49.814;7.828;2023-07-29T14:55:36;1.60;;;1.50;;
7997;SDS011;4044;49.814;7.828;2023-07-29T14:58:02;1.80;;;1.70;;
7997;SDS011;4044;49.814;7.828;2023-07-29T15:00:27;1.42;;;1.42;;
7997;SDS011;4044;49.814;7.828;2023-07-29T15:02:53;1.77;;;1.67;;
7997;SDS011;4044;49.814;7.828;2023-07-29T15:05:18;2.15;;;1.92;;
7997;SDS011;4044;49.814;7.828;2023-07-29T15:07:44;2.22;;;1.70;;
7997;SDS011;4044;49.814;7.828;2023-07-29T15:10:09;2.00;;;1.75;;
7997;SDS011;4044;49.814;7.828;2023-07-29T15:12:35;1.70;;;1.60;;
7997;SDS011;4044;49.814;7.828;2023-07-29T15:15:01;1.70;;;1.60;;
7997;SDS011;4044;49.814;7.828;2023-07-29T15:17:26;1.80;;;1.70;;
7997;SDS011;4044;49.814;7.828;2023-07-29T15:19:52;1.63;;;1.52;;
7997;SDS011;4044;49.814;7.828;2023-07-29T15:22:17;1.60;;;1.60;;
7997;SDS011;4044;49.814;7.828;2023-07-29T15:24:43;2.55;;;1.88;;
7997;SDS011;4044;49.814;7.828;2023-07-29T15:27:09;1.65;;;1.55;;